• Join FlightAware (Why Join?)
  • Login
  • US Flag 
05:01PM EDT


 

Airport Tracker/Info


-or-


 

Live Flight TrackerFlight Track Log ✈ KAP66 ✈ 07-May-2013 ✈ KBOS - KACK

Flight Track Log - Related Links

Times and Time Zones

All times are in EDT time to prevent confusion due to time zone crossing. See the KAP66 flight status page for this flight to view local times or setup timezone preferences in your user account.

Time Position Orientation Groundspeed Altitude Reporting Facility
EDT Latitude Longitude Course Direction KTS MPH feet Rate Location/Type
12:13PM 42.2500 -71.0500 147° Southeast 188 216 1,600  Level KA90
12:14PM 42.3000 -71.0333 14° North 173 199 1,200 -600 Descending KA90
12:15PM 42.3500 -71.0167 14° North 146 168 400 -840 Descending KA90
12:17PM 42.2953 -70.9680 103° East  Level Estimated
12:18PM 41.8656 -70.5776 147° Southeast  Level Estimated
12:24PM 42.1180 -70.6000 104° East  Level FlightAware Approximate
12:25PM 42.1066 -70.5397 104° East  Level FlightAware Approximate
12:26PM 42.0952 -70.4793 104° East  Level FlightAware Approximate
12:27PM 42.0838 -70.4191 104° East  Level FlightAware Approximate
12:28PM 42.0733 -70.3585 103° East  Level FlightAware Approximate
12:29PM 42.0628 -70.2979 103° East  Level FlightAware Approximate
12:30PM 42.0523 -70.2373 103° East  Level FlightAware Approximate
12:31PM 42.0418 -70.1767 103° East  Level FlightAware Approximate
12:32PM 42.0312 -70.1162 103° East  Level FlightAware Approximate
12:33PM 42.0206 -70.0557 103° East  Level FlightAware Approximate
12:34PM 41.9875 -70.0343 181° South  Level FlightAware Approximate
12:35PM 41.9414 -70.0359 181° South  Level FlightAware Approximate
12:36PM 41.8952 -70.0374 181° South  Level FlightAware Approximate
12:37PM 41.8490 -70.0389 181° South  Level FlightAware Approximate
12:38PM 41.8029 -70.0405 181° South  Level FlightAware Approximate
12:39PM 41.7567 -70.0420 181° South  Level FlightAware Approximate
12:40PM 41.7105 -70.0436 181° South  Level FlightAware Approximate
12:41PM 41.6644 -70.0451 181° South  Level FlightAware Approximate
12:42PM 41.6182 -70.0466 181° South  Level FlightAware Approximate
12:43PM 41.5720 -70.0482 181° South  Level FlightAware Approximate
12:44PM 41.5258 -70.0497 181° South  Level FlightAware Approximate
12:45PM 41.4796 -70.0500 180° South  Level FlightAware Approximate
12:46PM 41.4334 -70.0500 180° South  Level FlightAware Approximate
12:47PM 41.3873 -70.0500 180° South  Level FlightAware Approximate
12:48PM 41.3411 -70.0500 180° South  Level FlightAware Approximate
12:49PM 41.2949 -70.0500 180° South  Level FlightAware Approximate
12:50PM 41.2500 -70.0500 180° South  Level FlightAware Approximate
12:51PM 41.2531 -70.0603 180° South  Level Estimated
12:52PM 41.2531 -70.0603 180° South  Level Estimated
12:53PM 41.2531 -70.0603 180° South  Level Estimated
12:54PM 41.2531 -70.0603 180° South  Level Estimated
12:55PM 41.2531 -70.0603 180° South  Level Estimated
12:56PM 41.2531 -70.0603 180° South  Level Estimated
12:57PM 41.2531 -70.0603 180° South  Level Estimated
12:58PM 41.2531 -70.0603 180° South  Level Estimated
12:59PM 41.2531 -70.0603 180° South  Level Estimated
01:00PM 41.2531 -70.0603 180° South  Level Estimated
01:01PM 41.2531 -70.0603 180° South  Level Estimated
01:02PM 41.2531 -70.0603 180° South  Level Estimated
01:03PM 41.2531 -70.0603 180° South  Level Estimated
01:04PM 41.2531 -70.0603 180° South  Level Estimated
01:05PM 41.2531 -70.0603 180° South  Level Estimated